createdAt,value
2023-02-15T00:00:13.876Z,94.13
2023-02-15T00:02:40.561Z,79.63
2023-02-15T00:05:08.993Z,64.43
2023-02-15T00:07:35.569Z,91.22
2023-02-15T00:10:02.108Z,135.18
2023-02-15T00:12:28.658Z,146.48
2023-02-15T00:14:55.238Z,96.07
2023-02-15T00:17:21.817Z,174.10
2023-02-15T00:19:48.325Z,102.18
2023-02-15T00:22:16.277Z,152.85
2023-02-15T00:24:42.672Z,53.63
2023-02-15T00:27:10.309Z,59.22
2023-02-15T00:29:36.844Z,142.80
2023-02-15T00:32:03.439Z,146.63
2023-02-15T00:34:29.970Z,222.48
2023-02-15T00:36:56.587Z,188.82
2023-02-15T00:39:25.387Z,96.55
2023-02-15T00:41:51.978Z,126.03
2023-02-15T00:44:18.511Z,167.23
2023-02-15T00:46:44.957Z,79.53
2023-02-15T00:49:11.531Z,70.13
2023-02-15T00:51:38.420Z,103.10
2023-02-15T00:54:04.873Z,91.05
2023-02-15T00:56:32.796Z,55.00
2023-02-15T00:59:02.280Z,67.07
2023-02-15T01:01:28.862Z,49.63
2023-02-15T01:03:55.471Z,51.95
2023-02-15T01:06:22.001Z,52.28
2023-02-15T01:08:48.977Z,55.42
2023-02-15T01:11:16.482Z,71.97
2023-02-15T01:13:44.354Z,56.85
2023-02-15T01:16:10.863Z,48.92
2023-02-15T01:18:37.414Z,50.97
2023-02-15T01:21:10.210Z,44.63
2023-02-15T01:23:37.392Z,47.88
2023-02-15T01:26:04.364Z,42.08
2023-02-15T01:28:31.677Z,44.28
2023-02-15T01:31:00.400Z,48.97
2023-02-15T01:33:27.004Z,34.97
2023-02-15T01:35:57.117Z,34.53
2023-02-15T01:38:23.594Z,52.35
2023-02-15T01:40:52.018Z,40.17
2023-02-15T01:43:19.169Z,56.85
2023-02-15T01:45:48.171Z,46.40
2023-02-15T01:48:21.863Z,111.05
2023-02-15T01:50:50.618Z,71.97
2023-02-15T01:53:19.220Z,43.10
2023-02-15T01:55:47.953Z,41.67
2023-02-15T01:58:15.242Z,58.00
2023-02-15T02:00:42.089Z,58.05
2023-02-15T02:03:08.745Z,51.45
2023-02-15T02:05:36.751Z,29.10
2023-02-15T02:08:03.411Z,80.07
2023-02-15T02:10:30.165Z,38.15
2023-02-15T02:12:59.260Z,63.45
2023-02-15T02:15:29.643Z,41.55
2023-02-15T02:18:02.651Z,49.50
2023-02-15T02:20:46.822Z,53.10
2023-02-15T02:25:51.980Z,45.10
2023-02-15T02:28:29.670Z,57.92
2023-02-15T02:31:05.300Z,77.45
2023-02-15T02:33:43.730Z,92.80
2023-02-15T02:36:16.708Z,41.60
2023-02-15T02:38:49.169Z,39.97
2023-02-15T02:41:19.395Z,90.65
2023-02-15T02:43:50.179Z,113.13
2023-02-15T02:46:19.751Z,55.17
2023-02-15T02:48:49.168Z,92.68
2023-02-15T02:51:22.405Z,85.65
2023-02-15T02:53:51.113Z,56.08
2023-02-15T02:56:22.378Z,102.18
2023-02-15T02:58:50.749Z,93.13
2023-02-15T03:01:21.530Z,93.60
2023-02-15T03:03:51.365Z,54.70
2023-02-15T03:06:19.959Z,33.60
2023-02-15T03:08:48.328Z,34.45
2023-02-15T03:11:15.010Z,35.65
2023-02-15T03:13:41.770Z,66.10
2023-02-15T03:16:27.805Z,35.05
2023-02-15T03:18:58.933Z,42.15
2023-02-15T03:21:29.351Z,52.33
2023-02-15T03:23:58.631Z,61.13
2023-02-15T03:26:25.801Z,58.55
2023-02-15T03:28:53.073Z,46.75
2023-02-15T03:31:20.913Z,49.65
2023-02-15T03:33:50.701Z,61.05
2023-02-15T03:36:21.320Z,82.70
2023-02-15T03:38:51.042Z,107.43
2023-02-15T03:41:18.618Z,78.35
2023-02-15T03:43:49.123Z,56.95
2023-02-15T03:46:20.132Z,41.88
2023-02-15T03:48:48.253Z,35.13
2023-02-15T03:51:35.671Z,34.03
2023-02-15T03:54:05.352Z,41.22
2023-02-15T03:56:32.599Z,94.63
2023-02-15T03:59:17.794Z,62.83
2023-02-15T04:01:59.737Z,39.35
2023-02-15T04:04:29.257Z,70.88
2023-02-15T04:06:55.711Z,59.95
2023-02-15T04:09:42.384Z,57.20
2023-02-15T04:12:09.206Z,48.83
2023-02-15T04:14:54.718Z,55.90
2023-02-15T04:17:21.356Z,36.95
2023-02-15T04:20:06.583Z,43.25
2023-02-15T04:22:51.251Z,35.92
2023-02-15T04:25:19.226Z,33.63
2023-02-15T04:27:46.674Z,79.85
2023-02-15T04:30:14.693Z,86.07
2023-02-15T04:32:41.242Z,60.08
2023-02-15T04:35:08.132Z,48.22
2023-02-15T04:37:34.626Z,34.25
2023-02-15T04:40:01.159Z,50.67
2023-02-15T04:42:29.447Z,61.58
2023-02-15T04:44:56.092Z,43.17
2023-02-15T04:47:22.895Z,56.00
2023-02-15T04:49:49.710Z,59.03
2023-02-15T04:52:18.106Z,111.53
2023-02-15T04:54:44.657Z,65.72
2023-02-15T04:57:11.153Z,89.43
2023-02-15T04:59:39.029Z,37.70
2023-02-15T05:02:05.572Z,41.97
2023-02-15T05:04:32.205Z,37.85
2023-02-15T05:06:58.793Z,47.50
2023-02-15T05:09:25.345Z,36.25
2023-02-15T05:11:51.939Z,43.05
2023-02-15T05:14:18.565Z,26.92
2023-02-15T05:16:46.495Z,48.85
2023-02-15T05:19:12.996Z,41.72
2023-02-15T05:21:39.549Z,54.80
2023-02-15T05:24:26.105Z,37.05
2023-02-15T05:27:11.150Z,51.88
2023-02-15T05:29:37.620Z,55.15
2023-02-15T05:32:05.855Z,33.33
2023-02-15T05:34:32.501Z,33.72
2023-02-15T05:36:59.111Z,37.60
2023-02-15T05:39:25.719Z,34.55
2023-02-15T05:41:52.193Z,33.55
2023-02-15T05:44:18.913Z,49.60
2023-02-15T05:46:45.404Z,55.25
2023-02-15T05:49:13.395Z,53.10
2023-02-15T05:51:39.854Z,50.70
2023-02-15T05:54:06.382Z,46.40
2023-02-15T05:56:32.968Z,69.38
2023-02-15T05:58:59.490Z,93.88
2023-02-15T06:01:25.992Z,94.07
2023-02-15T06:03:53.410Z,52.92
2023-02-15T06:06:21.420Z,78.45
2023-02-15T06:08:48.026Z,71.22
2023-02-15T06:11:14.521Z,79.95
2023-02-15T06:13:41.180Z,59.92
2023-02-15T06:16:07.996Z,63.97
2023-02-15T06:18:34.515Z,54.97
2023-02-15T06:21:00.995Z,73.53
2023-02-15T06:23:29.519Z,57.72
2023-02-15T06:25:56.119Z,111.28
2023-02-15T06:28:22.696Z,43.88
2023-02-15T06:30:49.264Z,59.65
2023-02-15T06:33:15.875Z,51.60
2023-02-15T06:35:42.468Z,82.35
2023-02-15T06:38:08.991Z,58.80
2023-02-15T06:40:36.950Z,30.88
2023-02-15T06:43:03.551Z,81.28
2023-02-15T06:45:30.308Z,82.78
2023-02-15T06:47:56.966Z,64.95
2023-02-15T06:53:05.344Z,46.33
2023-02-15T06:55:31.938Z,55.35
2023-02-15T06:57:59.878Z,86.80
2023-02-15T07:00:26.558Z,162.35
2023-02-15T07:02:56.180Z,44.38
2023-02-15T07:05:22.746Z,31.73
2023-02-15T07:07:49.214Z,56.95
2023-02-15T07:10:15.829Z,84.88
2023-02-15T07:12:42.521Z,40.33
2023-02-15T07:15:11.353Z,41.00
2023-02-15T07:17:39.654Z,29.02
2023-02-15T07:20:07.136Z,37.42
2023-02-15T07:22:35.127Z,32.13
2023-02-15T07:25:01.818Z,31.55
2023-02-15T07:27:28.285Z,28.63
2023-02-15T07:29:54.848Z,39.65
2023-02-15T07:32:22.991Z,32.83
2023-02-15T07:34:49.614Z,32.30
2023-02-15T07:37:16.112Z,35.53
2023-02-15T07:39:42.681Z,30.77
2023-02-15T07:42:09.194Z,33.13
2023-02-15T07:44:35.667Z,28.63
2023-02-15T07:47:02.182Z,33.67
2023-02-15T07:49:30.230Z,33.22
2023-02-15T07:51:56.756Z,40.38
2023-02-15T07:54:23.278Z,38.58
2023-02-15T07:56:49.742Z,29.27
2023-02-15T07:59:16.193Z,79.72
2023-02-15T08:01:42.728Z,101.78
2023-02-15T08:04:10.572Z,176.32
2023-02-15T08:06:38.963Z,66.30
2023-02-15T08:09:06.054Z,48.42
2023-02-15T08:11:37.616Z,72.35
2023-02-15T08:14:05.399Z,44.13
2023-02-15T08:16:33.230Z,43.25
2023-02-15T08:19:00.611Z,46.92
2023-02-15T08:21:28.007Z,77.07
2023-02-15T08:23:56.162Z,35.42
2023-02-15T08:26:22.976Z,61.90
2023-02-15T08:28:50.134Z,38.92
2023-02-15T08:31:16.592Z,29.17
2023-02-15T08:33:43.740Z,53.58
2023-02-15T08:36:11.433Z,53.75
2023-02-15T08:38:38.064Z,49.20
2023-02-15T08:41:15.664Z,41.45
2023-02-15T08:43:42.439Z,32.30
2023-02-15T08:46:09.536Z,34.28
2023-02-15T08:48:36.043Z,42.80
2023-02-15T08:51:06.644Z,39.83
2023-02-15T08:53:33.247Z,44.50
2023-02-15T08:56:00.056Z,35.67
2023-02-15T08:58:28.924Z,43.90
2023-02-15T09:00:55.601Z,35.55
2023-02-15T09:03:22.212Z,31.52
2023-02-15T09:05:48.748Z,26.52
2023-02-15T09:08:15.231Z,31.60
2023-02-15T09:10:41.752Z,27.95
2023-02-15T09:13:08.769Z,28.38
2023-02-15T09:15:59.442Z,33.08
2023-02-15T09:18:25.988Z,31.02
2023-02-15T09:20:52.436Z,211.13
2023-02-15T09:23:26.777Z,35.45
2023-02-15T09:25:53.920Z,24.33
2023-02-15T09:28:20.355Z,22.00
2023-02-15T09:30:46.946Z,19.40
2023-02-15T09:33:14.876Z,20.20
2023-02-15T09:35:43.784Z,25.45
2023-02-15T09:38:12.937Z,23.50
2023-02-15T09:40:43.561Z,20.52
2023-02-15T09:43:20.864Z,22.67
2023-02-15T09:45:54.119Z,22.65
2023-02-15T09:48:33.558Z,24.55
2023-02-15T09:51:06.816Z,24.83
2023-02-15T09:53:39.732Z,30.75
2023-02-15T09:56:08.014Z,28.40
2023-02-15T09:58:39.961Z,29.23
2023-02-15T10:01:10.350Z,27.38
2023-02-15T10:03:43.287Z,29.65
2023-02-15T10:06:21.831Z,29.70
2023-02-15T10:09:09.011Z,29.08
2023-02-15T10:11:41.359Z,30.60
2023-02-15T10:14:14.487Z,30.95
2023-02-15T10:16:44.012Z,31.85
2023-02-15T10:19:14.443Z,29.42
2023-02-15T10:21:47.139Z,28.95
2023-02-15T10:24:22.555Z,36.15
2023-02-15T10:26:49.515Z,28.08
2023-02-15T10:29:22.349Z,29.15
2023-02-15T10:31:50.430Z,22.70
2023-02-15T10:34:19.946Z,28.20
2023-02-15T10:37:19.874Z,29.42
2023-02-15T10:39:52.275Z,27.35
2023-02-15T10:42:23.373Z,29.92
2023-02-15T10:44:56.228Z,28.20
2023-02-15T10:47:36.901Z,28.58
2023-02-15T10:50:27.798Z,25.77
2023-02-15T10:53:00.724Z,29.02
2023-02-15T10:55:36.371Z,28.38
2023-02-15T10:58:06.960Z,29.48
2023-02-15T11:00:40.220Z,28.27
2023-02-15T11:03:24.912Z,27.25
2023-02-15T11:05:58.776Z,28.38
2023-02-15T11:10:55.996Z,26.45
2023-02-15T11:13:24.926Z,25.27
2023-02-15T11:15:54.026Z,26.35
2023-02-15T11:18:25.121Z,24.90
2023-02-15T11:20:54.452Z,27.73
2023-02-15T11:23:22.661Z,29.63
2023-02-15T11:25:55.358Z,25.05
2023-02-15T11:28:25.130Z,28.33
2023-02-15T11:30:53.317Z,25.67
2023-02-15T11:33:23.307Z,26.75
2023-02-15T11:35:51.792Z,29.10
2023-02-15T11:38:19.683Z,26.02
2023-02-15T11:40:49.927Z,26.58
2023-02-15T11:43:19.103Z,26.23
2023-02-15T11:45:46.428Z,24.40
2023-02-15T11:48:13.865Z,23.05
2023-02-15T11:50:40.788Z,24.65
2023-02-15T11:53:10.210Z,26.70
2023-02-15T11:55:36.655Z,25.00
2023-02-15T11:58:09.769Z,25.65
2023-02-15T12:00:38.960Z,25.23
2023-02-15T12:03:10.904Z,26.88
2023-02-15T12:05:38.917Z,26.58
2023-02-15T12:08:11.292Z,27.48
2023-02-15T12:10:41.169Z,28.40
2023-02-15T12:13:13.317Z,24.23
2023-02-15T12:15:42.035Z,22.02
2023-02-15T12:18:17.551Z,20.45
2023-02-15T12:20:44.201Z,22.60
2023-02-15T12:23:13.828Z,22.52
2023-02-15T12:25:42.291Z,25.27
2023-02-15T12:28:22.365Z,20.73
2023-02-15T12:30:48.944Z,19.85
2023-02-15T12:33:16.620Z,19.48
2023-02-15T12:35:43.750Z,20.50
2023-02-15T12:38:21.047Z,20.90
2023-02-15T12:40:57.230Z,22.13
2023-02-15T12:43:27.219Z,21.08
2023-02-15T12:45:53.818Z,58.40
2023-02-15T12:48:21.292Z,27.88
2023-02-15T12:50:54.687Z,21.15
2023-02-15T12:53:24.486Z,21.42
2023-02-15T12:55:51.980Z,22.02
2023-02-15T12:58:19.554Z,20.88
2023-02-15T13:00:47.738Z,21.05
2023-02-15T13:03:18.848Z,21.75
2023-02-15T13:05:46.268Z,21.90
2023-02-15T13:08:14.823Z,22.27
2023-02-15T13:10:42.742Z,23.98
2023-02-15T13:13:12.753Z,21.45
2023-02-15T13:15:41.313Z,22.88
2023-02-15T13:18:13.313Z,27.30
2023-02-15T13:20:41.723Z,24.75
2023-02-15T13:23:13.292Z,23.25
2023-02-15T13:25:44.825Z,27.98
2023-02-15T13:28:13.137Z,21.80
2023-02-15T13:30:43.112Z,26.98
2023-02-15T13:33:15.483Z,25.02
2023-02-15T13:35:44.382Z,23.17
2023-02-15T13:38:16.950Z,25.48
2023-02-15T13:40:46.618Z,25.35
2023-02-15T13:43:19.580Z,27.52
2023-02-15T13:45:54.254Z,33.80
2023-02-15T13:48:36.961Z,24.85
2023-02-15T13:51:19.872Z,23.45
2023-02-15T13:53:57.087Z,26.55
2023-02-15T13:56:27.305Z,26.48
2023-02-15T13:59:14.695Z,25.85
2023-02-15T14:01:44.765Z,26.80
2023-02-15T14:04:30.328Z,25.25
2023-02-15T14:07:04.078Z,46.97
2023-02-15T14:09:38.577Z,77.35
2023-02-15T14:12:23.036Z,24.35
2023-02-15T14:15:01.653Z,28.70
2023-02-15T14:17:30.818Z,25.13
2023-02-15T14:20:03.142Z,28.27
2023-02-15T14:22:32.893Z,23.00
2023-02-15T14:25:13.638Z,26.27
2023-02-15T14:27:44.345Z,27.52
2023-02-15T14:30:15.878Z,29.67
2023-02-15T14:32:43.747Z,27.88
2023-02-15T14:35:15.127Z,24.77
2023-02-15T14:37:44.603Z,28.52
2023-02-15T14:40:35.915Z,29.40
2023-02-15T14:43:08.529Z,27.98
2023-02-15T14:45:44.017Z,28.77
2023-02-15T14:48:13.482Z,29.15
2023-02-15T14:50:44.813Z,28.20
2023-02-15T14:53:24.072Z,29.73
2023-02-15T14:56:06.116Z,26.80
2023-02-15T14:58:33.092Z,27.42
2023-02-15T15:01:06.507Z,30.75
2023-02-15T15:03:33.338Z,33.42
2023-02-15T15:06:05.837Z,31.15
2023-02-15T15:08:34.229Z,35.65
2023-02-15T15:11:42.094Z,33.72
2023-02-15T15:14:10.473Z,41.45
2023-02-15T15:17:01.292Z,52.22
2023-02-15T15:19:58.293Z,26.60
2023-02-15T15:22:26.706Z,33.50
2023-02-15T15:24:54.083Z,29.60
2023-02-15T15:27:46.909Z,31.27
2023-02-15T15:30:32.325Z,29.52
2023-02-15T15:33:04.439Z,33.50
2023-02-15T15:35:35.951Z,33.80
2023-02-15T15:38:16.259Z,33.88
2023-02-15T15:40:48.824Z,34.05
2023-02-15T15:43:35.058Z,34.42
2023-02-15T15:46:07.293Z,31.98
2023-02-15T15:48:34.868Z,31.23
2023-02-15T15:51:03.076Z,33.95
2023-02-15T15:53:34.348Z,34.05
2023-02-15T15:56:04.332Z,33.35
2023-02-15T15:58:32.649Z,34.63
2023-02-15T16:01:02.915Z,31.33
2023-02-15T16:03:29.809Z,35.75
2023-02-15T16:05:57.225Z,38.70
2023-02-15T16:08:27.522Z,36.00
2023-02-15T16:10:55.622Z,34.17
2023-02-15T16:13:22.539Z,33.22
2023-02-15T16:15:53.217Z,34.95
2023-02-15T16:18:20.968Z,34.35
2023-02-15T16:20:50.896Z,36.15
2023-02-15T16:23:22.687Z,36.17
2023-02-15T16:25:54.546Z,33.63
2023-02-15T16:28:22.629Z,34.78
2023-02-15T16:31:00.054Z,34.92
2023-02-15T16:33:36.535Z,39.63
2023-02-15T16:36:08.530Z,44.22
2023-02-15T16:38:53.672Z,52.28
2023-02-15T16:41:22.666Z,51.58
2023-02-15T16:43:51.435Z,50.67
2023-02-15T16:46:21.644Z,46.13
2023-02-15T16:48:52.642Z,44.58
2023-02-15T16:51:20.967Z,56.03
2023-02-15T16:53:48.268Z,84.30
2023-02-15T16:56:17.017Z,109.32
2023-02-15T16:58:45.062Z,192.23
2023-02-15T17:01:14.468Z,46.58
2023-02-15T17:03:41.383Z,48.63
2023-02-15T17:06:22.421Z,44.92
2023-02-15T17:08:49.056Z,51.28
2023-02-15T17:11:17.037Z,93.45
2023-02-15T17:14:01.428Z,110.70
2023-02-15T17:16:32.768Z,53.13
2023-02-15T17:19:00.192Z,46.67
2023-02-15T17:21:28.730Z,57.03
2023-02-15T17:23:59.936Z,118.40
2023-02-15T17:26:28.092Z,83.95
2023-02-15T17:28:57.125Z,88.38
2023-02-15T17:31:25.943Z,63.35
2023-02-15T17:33:55.865Z,60.95
2023-02-15T17:36:23.769Z,97.43
2023-02-15T17:39:01.735Z,56.28
2023-02-15T17:41:29.593Z,73.20
2023-02-15T17:43:56.286Z,55.97
2023-02-15T17:46:22.926Z,174.23
2023-02-15T17:48:50.428Z,95.85
2023-02-15T17:51:19.266Z,48.90
2023-02-15T17:54:05.909Z,163.73
2023-02-15T17:56:32.429Z,57.00
2023-02-15T17:58:58.884Z,91.70
2023-02-15T18:01:43.803Z,98.20
2023-02-15T18:04:30.491Z,179.10
2023-02-15T18:07:17.824Z,150.23
2023-02-15T18:10:03.156Z,114.47
2023-02-15T18:12:30.496Z,120.72
2023-02-15T18:14:57.596Z,84.18
2023-02-15T18:17:25.399Z,148.30
2023-02-15T18:19:51.947Z,115.78
2023-02-15T18:22:20.256Z,79.18
2023-02-15T18:24:47.519Z,118.57
2023-02-15T18:27:14.685Z,191.57
2023-02-15T18:29:41.618Z,110.38
2023-02-15T18:32:09.481Z,270.88
2023-02-15T18:34:38.179Z,236.75
2023-02-15T18:37:06.359Z,83.85
2023-02-15T18:39:37.684Z,87.32
2023-02-15T18:42:04.842Z,61.20
2023-02-15T18:44:31.599Z,119.18
2023-02-15T18:46:58.081Z,72.00
2023-02-15T18:49:24.750Z,73.97
2023-02-15T18:51:52.544Z,117.35
2023-02-15T18:54:20.044Z,65.72
2023-02-15T18:56:51.533Z,86.20
2023-02-15T18:59:18.567Z,66.68
2023-02-15T19:01:45.222Z,134.55
2023-02-15T19:04:11.929Z,87.90
2023-02-15T19:06:40.256Z,104.55
2023-02-15T19:09:07.128Z,53.50
2023-02-15T19:11:33.946Z,112.68
2023-02-15T19:14:02.173Z,90.43
2023-02-15T19:16:30.646Z,119.03
2023-02-15T19:18:57.744Z,111.45
2023-02-15T19:21:24.636Z,131.27
2023-02-15T19:23:54.004Z,57.13
2023-02-15T19:26:20.628Z,121.28
2023-02-15T19:28:47.729Z,129.95
2023-02-15T19:31:17.953Z,165.45
2023-02-15T19:33:44.699Z,100.30
2023-02-15T19:36:14.998Z,67.78
2023-02-15T19:38:41.827Z,57.88
2023-02-15T19:41:09.061Z,63.35
2023-02-15T19:43:35.844Z,63.22
2023-02-15T19:46:02.823Z,129.98
2023-02-15T19:48:31.019Z,165.43
2023-02-15T19:50:58.100Z,146.05
2023-02-15T19:53:25.776Z,93.53
2023-02-15T19:55:52.454Z,133.48
2023-02-15T19:58:19.484Z,173.63
2023-02-15T20:00:47.063Z,95.30
2023-02-15T20:03:14.358Z,198.82
2023-02-15T20:05:42.687Z,228.65
2023-02-15T20:08:14.580Z,125.70
2023-02-15T20:10:41.353Z,135.90
2023-02-15T20:13:11.088Z,146.32
2023-02-15T20:15:37.857Z,153.40
2023-02-15T20:18:05.169Z,82.72
2023-02-15T20:20:33.498Z,117.60
2023-02-15T20:23:02.009Z,182.15
2023-02-15T20:25:29.092Z,137.73
2023-02-15T20:27:56.217Z,82.15
2023-02-15T20:30:23.891Z,59.88
2023-02-15T20:32:50.981Z,104.25
2023-02-15T20:35:18.579Z,48.95
2023-02-15T20:37:45.759Z,114.43
2023-02-15T20:40:18.420Z,92.45
2023-02-15T20:42:45.296Z,208.15
2023-02-15T20:45:15.713Z,42.80
2023-02-15T20:47:48.387Z,186.23
2023-02-15T20:50:16.013Z,134.00
2023-02-15T20:52:42.709Z,134.35
2023-02-15T20:55:12.418Z,116.63
2023-02-15T20:57:40.266Z,87.80
2023-02-15T21:00:11.172Z,62.83
2023-02-15T21:02:37.718Z,141.75
2023-02-15T21:05:10.087Z,87.45
2023-02-15T21:07:36.576Z,78.63
2023-02-15T21:10:03.102Z,115.88
2023-02-15T21:12:29.761Z,74.13
2023-02-15T21:14:57.771Z,82.00
2023-02-15T21:17:24.421Z,92.97
2023-02-15T21:19:51.051Z,42.85
2023-02-15T21:22:17.624Z,65.85
2023-02-15T21:24:46.364Z,319.40
2023-02-15T21:27:13.188Z,140.77
2023-02-15T21:29:39.841Z,98.50
2023-02-15T21:32:08.269Z,184.68
2023-02-15T21:34:34.838Z,147.57
2023-02-15T21:37:01.529Z,121.72
2023-02-15T21:39:29.429Z,164.27
2023-02-15T21:42:14.927Z,156.00
2023-02-15T21:44:59.949Z,254.57
2023-02-15T21:47:47.608Z,133.05
2023-02-15T21:50:33.566Z,140.00
2023-02-15T21:53:00.361Z,69.63
2023-02-15T21:55:26.990Z,93.45
2023-02-15T21:57:53.625Z,52.88
2023-02-15T22:00:21.215Z,38.80
2023-02-15T22:02:51.300Z,103.18
2023-02-15T22:05:18.727Z,63.70
2023-02-15T22:07:45.388Z,56.78
2023-02-15T22:10:12.426Z,63.22
2023-02-15T22:12:39.529Z,59.58
2023-02-15T22:15:06.337Z,72.85
2023-02-15T22:17:34.521Z,56.15
2023-02-15T22:20:02.415Z,76.90
2023-02-15T22:22:30.806Z,62.20
2023-02-15T22:24:57.335Z,78.15
2023-02-15T22:27:27.945Z,78.70
2023-02-15T22:29:54.734Z,135.40
2023-02-15T22:32:22.486Z,119.47
2023-02-15T22:34:49.458Z,82.78
2023-02-15T22:37:17.384Z,135.20
2023-02-15T22:39:43.847Z,101.68
2023-02-15T22:42:16.938Z,56.45
2023-02-15T22:44:43.560Z,80.53
2023-02-15T22:47:15.742Z,214.70
2023-02-15T22:49:42.801Z,320.63
2023-02-15T22:52:12.366Z,61.22
2023-02-15T22:54:40.291Z,53.40
2023-02-15T22:57:08.715Z,61.90
2023-02-15T22:59:35.249Z,61.95
2023-02-15T23:02:03.440Z,45.75
2023-02-15T23:04:30.120Z,47.80
2023-02-15T23:06:59.006Z,97.07
2023-02-15T23:09:25.502Z,110.05
2023-02-15T23:11:53.803Z,72.07
2023-02-15T23:14:24.373Z,75.60
2023-02-15T23:16:51.022Z,95.40
2023-02-15T23:19:17.510Z,62.63
2023-02-15T23:21:44.144Z,58.53
2023-02-15T23:24:15.430Z,72.45
2023-02-15T23:26:41.905Z,103.05
2023-02-15T23:29:13.384Z,156.63
2023-02-15T23:31:42.226Z,59.13
2023-02-15T23:34:13.706Z,40.20
2023-02-15T23:36:40.273Z,125.03
2023-02-15T23:39:31.385Z,114.38
2023-02-15T23:41:58.398Z,117.70
2023-02-15T23:44:26.267Z,120.20
2023-02-15T23:46:52.827Z,45.63
2023-02-15T23:49:19.555Z,44.03
2023-02-15T23:51:47.309Z,45.08
2023-02-15T23:54:14.269Z,41.30
2023-02-15T23:56:41.608Z,83.07
2023-02-15T23:59:08.608Z,48.45
